createdAt,value
2019-06-27T00:01:39.925Z,19.62
2019-06-27T00:04:07.482Z,18.75
2019-06-27T00:06:34.910Z,20.37
2019-06-27T00:09:02.518Z,16.12
2019-06-27T00:11:30.006Z,17.77
2019-06-27T00:13:57.896Z,17.62
2019-06-27T00:16:25.508Z,20.02
2019-06-27T00:18:53.096Z,21.35
2019-06-27T00:21:20.546Z,18.10
2019-06-27T00:23:48.170Z,18.75
2019-06-27T00:26:15.599Z,17.65
2019-06-27T00:28:43.022Z,19.27
2019-06-27T00:31:10.430Z,20.12
2019-06-27T00:33:37.846Z,21.05
2019-06-27T00:36:05.340Z,21.05
2019-06-27T00:38:32.864Z,16.65
2019-06-27T00:41:00.303Z,16.52
2019-06-27T00:43:27.746Z,19.92
2019-06-27T00:45:55.142Z,16.80
2019-06-27T00:48:22.621Z,18.50
2019-06-27T00:50:50.319Z,18.85
2019-06-27T00:53:18.086Z,18.57
2019-06-27T00:55:45.581Z,18.98
2019-06-27T00:58:13.739Z,19.20
2019-06-27T01:00:41.169Z,18.77
2019-06-27T01:03:08.619Z,17.40
2019-06-27T01:05:36.362Z,19.75
2019-06-27T01:08:03.870Z,16.75
2019-06-27T01:10:31.300Z,20.92
2019-06-27T01:12:58.729Z,18.08
2019-06-27T01:15:26.183Z,19.05
2019-06-27T01:17:53.616Z,18.00
2019-06-27T01:20:21.076Z,18.85
2019-06-27T01:22:48.884Z,20.45
2019-06-27T01:25:16.330Z,17.87
2019-06-27T01:27:43.776Z,21.00
2019-06-27T01:30:11.189Z,17.30
2019-06-27T01:32:38.863Z,20.98
2019-06-27T01:35:06.294Z,15.30
2019-06-27T01:37:33.765Z,17.90
2019-06-27T01:40:01.204Z,15.35
2019-06-27T01:42:28.667Z,19.02
2019-06-27T01:44:56.878Z,15.05
2019-06-27T01:47:25.140Z,18.10
2019-06-27T01:49:52.570Z,17.17
2019-06-27T01:52:20.023Z,16.33
2019-06-27T01:54:47.446Z,15.27
2019-06-27T01:57:15.188Z,14.25
2019-06-27T01:59:42.711Z,17.80
2019-06-27T02:02:10.175Z,17.58
2019-06-27T02:04:38.016Z,17.80
2019-06-27T02:07:05.700Z,17.05
2019-06-27T02:09:33.628Z,14.93
2019-06-27T02:12:00.736Z,17.15
2019-06-27T02:14:28.184Z,13.65
2019-06-27T02:16:55.885Z,18.60
2019-06-27T02:19:23.922Z,13.15
2019-06-27T02:21:51.374Z,16.98
2019-06-27T02:24:19.416Z,15.95
2019-06-27T02:26:47.123Z,18.17
2019-06-27T02:29:14.555Z,16.37
2019-06-27T02:31:42.032Z,16.35
2019-06-27T02:34:09.504Z,15.95
2019-06-27T02:36:37.167Z,14.68
2019-06-27T02:39:04.590Z,16.08
2019-06-27T02:41:32.295Z,15.25
2019-06-27T02:43:59.730Z,15.07
2019-06-27T02:46:27.420Z,13.07
2019-06-27T02:48:54.856Z,15.57
2019-06-27T02:51:22.319Z,15.45
2019-06-27T02:53:49.756Z,12.63
2019-06-27T02:56:17.405Z,14.23
2019-06-27T02:58:45.560Z,17.40
2019-06-27T03:01:12.981Z,16.27
2019-06-27T03:03:41.735Z,16.73
2019-06-27T03:06:09.211Z,16.75
2019-06-27T03:08:36.668Z,15.80
2019-06-27T03:11:04.849Z,16.08
2019-06-27T03:13:32.289Z,16.12
2019-06-27T03:16:00.035Z,17.33
2019-06-27T03:18:27.615Z,17.08
2019-06-27T03:20:55.072Z,18.70
2019-06-27T03:23:22.500Z,17.15
2019-06-27T03:25:50.359Z,17.17
2019-06-27T03:28:17.847Z,16.50
2019-06-27T03:30:45.533Z,18.70
2019-06-27T03:33:12.964Z,17.83
2019-06-27T03:35:40.446Z,18.58
2019-06-27T03:38:07.816Z,17.75
2019-06-27T03:40:35.306Z,16.17
2019-06-27T03:43:02.759Z,21.00
2019-06-27T03:45:30.675Z,17.92
2019-06-27T03:47:58.320Z,17.83
2019-06-27T03:50:25.997Z,16.40
2019-06-27T03:52:53.423Z,13.88
2019-06-27T03:55:20.953Z,14.45
2019-06-27T03:57:48.373Z,16.83
2019-06-27T04:00:20.493Z,12.75
2019-06-27T04:02:47.923Z,14.10
2019-06-27T04:09:50.573Z,16.98
2019-06-27T04:12:18.022Z,16.30
2019-06-27T04:14:45.468Z,14.20
2019-06-27T04:17:12.918Z,15.98
2019-06-27T04:19:40.376Z,14.40
2019-06-27T04:22:08.295Z,16.50
2019-06-27T04:24:35.715Z,17.70
2019-06-27T04:27:03.317Z,18.58
2019-06-27T04:29:33.903Z,21.87
2019-06-27T04:31:58.243Z,18.25
2019-06-27T04:34:25.673Z,20.48
2019-06-27T04:36:53.798Z,20.92
2019-06-27T04:39:21.865Z,14.87
2019-06-27T04:41:50.249Z,16.12
2019-06-27T04:44:17.694Z,16.12
2019-06-27T04:46:45.421Z,14.75
2019-06-27T04:49:13.743Z,15.57
2019-06-27T04:51:40.347Z,15.27
2019-06-27T04:54:07.853Z,17.27
2019-06-27T04:56:35.338Z,17.02
2019-06-27T04:59:02.812Z,15.82
2019-06-27T05:01:30.589Z,17.52
2019-06-27T05:03:58.138Z,16.25
2019-06-27T05:06:26.520Z,14.15
2019-06-27T05:08:53.932Z,14.32
2019-06-27T05:11:22.058Z,13.23
2019-06-27T05:13:49.479Z,12.48
2019-06-27T05:16:17.070Z,14.87
2019-06-27T05:18:44.516Z,19.35
2019-06-27T05:21:12.284Z,16.05
2019-06-27T05:23:39.927Z,17.40
2019-06-27T05:26:07.547Z,15.65
2019-06-27T05:28:35.083Z,14.45
2019-06-27T05:31:02.550Z,14.15
2019-06-27T05:33:29.998Z,15.65
2019-06-27T05:35:57.916Z,21.02
2019-06-27T05:38:25.442Z,16.77
2019-06-27T05:40:52.930Z,15.98
2019-06-27T05:43:20.326Z,18.55
2019-06-27T05:45:48.174Z,20.67
2019-06-27T05:48:15.592Z,18.75
2019-06-27T05:50:43.098Z,16.73
2019-06-27T05:53:10.578Z,17.20
2019-06-27T05:55:38.519Z,19.40
2019-06-27T05:58:06.010Z,19.17
2019-06-27T06:00:33.555Z,19.52
2019-06-27T06:03:01.007Z,17.05
2019-06-27T06:05:28.553Z,17.55
2019-06-27T06:07:56.088Z,18.62
2019-06-27T06:10:24.358Z,19.27
2019-06-27T06:12:51.777Z,20.67
2019-06-27T06:15:19.754Z,18.98
2019-06-27T06:20:14.367Z,17.67
2019-06-27T06:22:41.776Z,17.27
2019-06-27T06:25:09.645Z,20.15
2019-06-27T06:27:37.102Z,17.90
2019-06-27T06:30:04.561Z,20.30
2019-06-27T06:32:32.042Z,21.25
2019-06-27T06:35:00.237Z,23.15
2019-06-27T06:37:27.650Z,23.48
2019-06-27T06:39:55.161Z,19.55
2019-06-27T06:42:22.604Z,22.00
2019-06-27T06:44:50.179Z,22.48
2019-06-27T06:47:17.893Z,21.40
2019-06-27T06:49:45.482Z,22.13
2019-06-27T06:52:12.933Z,23.70
2019-06-27T06:54:40.572Z,20.52
2019-06-27T06:57:08.006Z,23.50
2019-06-27T06:59:36.340Z,24.10
2019-06-27T07:02:03.760Z,20.10
2019-06-27T07:04:31.545Z,19.02
2019-06-27T07:06:59.166Z,18.15
2019-06-27T07:09:26.775Z,22.02
2019-06-27T07:11:54.353Z,20.00
2019-06-27T07:14:22.461Z,24.23
2019-06-27T07:16:49.885Z,24.58
2019-06-27T07:19:17.627Z,23.30
2019-06-27T07:21:45.081Z,21.15
2019-06-27T07:24:12.663Z,24.05
2019-06-27T07:26:40.227Z,26.20
2019-06-27T07:29:08.435Z,19.60
2019-06-27T07:31:35.851Z,26.37
2019-06-27T07:34:03.337Z,26.55
2019-06-27T07:36:30.776Z,24.27
2019-06-27T07:38:58.200Z,25.40
2019-06-27T07:41:25.742Z,23.98
2019-06-27T07:43:53.633Z,23.67
2019-06-27T07:46:25.522Z,26.62
2019-06-27T07:48:50.081Z,26.33
2019-06-27T07:53:44.717Z,26.45
2019-06-27T07:56:12.138Z,23.62
2019-06-27T07:58:39.662Z,26.85
2019-06-27T08:01:07.121Z,26.92
2019-06-27T08:03:35.010Z,22.83
2019-06-27T08:06:02.569Z,26.70
2019-06-27T08:08:31.085Z,30.27
2019-06-27T08:10:58.607Z,25.67
2019-06-27T08:13:26.039Z,26.40
2019-06-27T08:15:53.617Z,26.42
2019-06-27T08:18:21.093Z,27.73
2019-06-27T08:20:48.514Z,25.42
2019-06-27T08:23:16.543Z,27.92
2019-06-27T08:25:43.982Z,31.15
2019-06-27T08:28:11.431Z,67.95
2019-06-27T08:30:38.839Z,22.13
2019-06-27T08:33:06.508Z,23.62
2019-06-27T08:35:33.989Z,18.20
2019-06-27T08:38:01.485Z,22.02
2019-06-27T08:40:28.914Z,21.10
2019-06-27T08:42:56.476Z,20.30
2019-06-27T08:45:24.666Z,17.52
2019-06-27T08:47:52.201Z,17.90
2019-06-27T08:50:19.746Z,20.20
2019-06-27T08:52:47.197Z,16.80
2019-06-27T08:55:14.693Z,17.60
2019-06-27T08:57:42.323Z,20.62
2019-06-27T09:00:10.599Z,27.00
2019-06-27T09:02:38.079Z,25.67
2019-06-27T09:05:06.681Z,19.02
2019-06-27T09:07:34.151Z,19.75
2019-06-27T09:10:01.604Z,18.67
2019-06-27T09:12:29.658Z,23.17
2019-06-27T09:14:57.139Z,21.92
2019-06-27T09:17:24.690Z,17.35
2019-06-27T09:19:52.118Z,21.15
2019-06-27T09:22:19.717Z,20.75
2019-06-27T09:24:47.249Z,20.65
2019-06-27T09:27:16.146Z,20.70
2019-06-27T09:29:43.636Z,20.12
2019-06-27T09:32:24.094Z,20.15
2019-06-27T09:34:39.952Z,21.15
2019-06-27T09:37:07.353Z,21.62
2019-06-27T09:39:34.815Z,24.17
2019-06-27T09:42:02.279Z,24.40
2019-06-27T09:44:30.078Z,27.55
2019-06-27T09:46:57.864Z,25.20
2019-06-27T09:49:25.413Z,32.67
2019-06-27T09:51:52.908Z,27.17
2019-06-27T09:54:20.318Z,26.08
2019-06-27T09:56:49.267Z,23.60
2019-06-27T09:59:16.910Z,37.35
2019-06-27T10:01:44.741Z,33.90
2019-06-27T10:04:12.231Z,36.22
2019-06-27T10:06:39.823Z,29.98
2019-06-27T10:09:07.419Z,25.92
2019-06-27T10:11:34.926Z,34.53
2019-06-27T10:14:02.395Z,33.05
2019-06-27T10:16:29.945Z,33.42
2019-06-27T10:18:57.383Z,32.33
2019-06-27T10:21:25.129Z,27.50
2019-06-27T10:23:52.565Z,29.75
2019-06-27T10:26:20.342Z,31.17
2019-06-27T10:28:47.874Z,31.67
2019-06-27T10:31:16.289Z,31.50
2019-06-27T10:33:43.904Z,33.13
2019-06-27T10:36:11.274Z,38.55
2019-06-27T10:38:38.706Z,34.60
2019-06-27T10:41:06.564Z,33.35
2019-06-27T10:43:33.983Z,35.55
2019-06-27T10:46:02.279Z,29.45
2019-06-27T10:48:29.691Z,32.75
2019-06-27T10:50:57.385Z,35.22
2019-06-27T10:53:24.868Z,29.98
2019-06-27T10:55:52.736Z,30.90
2019-06-27T10:58:20.210Z,28.20
2019-06-27T11:00:47.885Z,38.72
2019-06-27T11:03:16.519Z,36.58
2019-06-27T11:05:43.051Z,32.10
2019-06-27T11:08:11.220Z,38.38
2019-06-27T11:10:38.699Z,42.65
2019-06-27T11:13:06.149Z,28.80
2019-06-27T11:15:33.726Z,31.60
2019-06-27T11:18:01.660Z,28.62
2019-06-27T11:20:29.233Z,40.83
2019-06-27T11:22:56.878Z,30.98
2019-06-27T11:25:24.450Z,30.80
2019-06-27T11:27:51.872Z,35.30
2019-06-27T11:30:19.575Z,30.90
2019-06-27T11:32:47.154Z,31.62
2019-06-27T11:35:15.148Z,44.35
2019-06-27T11:37:42.814Z,49.47
2019-06-27T11:40:12.303Z,39.55
2019-06-27T11:42:37.807Z,36.45
2019-06-27T11:45:05.270Z,37.97
2019-06-27T11:47:34.523Z,38.05
2019-06-27T11:50:00.882Z,41.28
2019-06-27T11:52:28.401Z,34.58
2019-06-27T11:54:55.839Z,36.72
2019-06-27T11:57:23.397Z,37.50
2019-06-27T11:59:51.103Z,34.80
2019-06-27T12:02:18.665Z,35.78
2019-06-27T12:04:46.380Z,31.58
2019-06-27T12:07:13.800Z,33.08
2019-06-27T12:09:41.386Z,31.27
2019-06-27T12:12:08.834Z,35.60
2019-06-27T12:14:36.271Z,33.17
2019-06-27T12:17:03.939Z,28.40
2019-06-27T12:19:31.437Z,32.80
2019-06-27T12:21:58.856Z,35.03
2019-06-27T12:24:27.161Z,27.83
2019-06-27T12:26:54.767Z,31.92
2019-06-27T12:29:22.351Z,31.23
2019-06-27T12:31:51.776Z,36.67
2019-06-27T12:34:17.421Z,31.00
2019-06-27T12:36:44.899Z,38.10
2019-06-27T12:39:12.484Z,30.40
2019-06-27T12:41:40.074Z,39.75
2019-06-27T12:44:07.453Z,37.28
2019-06-27T12:46:34.915Z,33.08
2019-06-27T12:49:02.523Z,36.83
2019-06-27T12:51:29.969Z,36.13
2019-06-27T12:53:57.630Z,47.15
2019-06-27T12:56:25.184Z,35.00
2019-06-27T12:58:53.005Z,30.12
2019-06-27T13:01:20.467Z,34.25
2019-06-27T13:03:47.982Z,32.30
2019-06-27T13:06:15.427Z,29.85
2019-06-27T13:08:42.930Z,41.13
2019-06-27T13:11:10.452Z,39.42
2019-06-27T13:13:38.055Z,39.35
2019-06-27T13:16:05.489Z,41.07
2019-06-27T13:18:33.313Z,36.90
2019-06-27T13:21:00.734Z,41.77
2019-06-27T13:23:28.275Z,47.83
2019-06-27T13:25:55.859Z,42.00
2019-06-27T13:28:24.173Z,32.30
2019-06-27T13:30:51.663Z,38.10
2019-06-27T13:33:19.220Z,43.40
2019-06-27T13:35:49.113Z,38.33
2019-06-27T13:38:14.486Z,37.97
2019-06-27T13:40:41.979Z,40.05
2019-06-27T13:43:09.481Z,39.37
2019-06-27T13:45:36.943Z,48.67
2019-06-27T13:48:04.507Z,51.53
2019-06-27T13:50:31.915Z,47.20
2019-06-27T13:52:59.578Z,48.47
2019-06-27T13:55:27.049Z,47.92
2019-06-27T13:57:57.519Z,43.33
2019-06-27T14:00:43.152Z,63.03
2019-06-27T14:03:10.603Z,52.88
2019-06-27T14:05:38.034Z,50.80
2019-06-27T14:08:05.436Z,59.47
2019-06-27T14:10:32.915Z,48.80
2019-06-27T14:13:00.635Z,53.47
2019-06-27T14:15:28.165Z,46.90
2019-06-27T14:17:55.742Z,49.23
2019-06-27T14:20:24.031Z,53.93
2019-06-27T14:22:51.443Z,56.55
2019-06-27T14:25:18.888Z,51.50
2019-06-27T14:27:46.311Z,53.27
2019-06-27T14:30:13.722Z,55.33
2019-06-27T14:32:41.320Z,55.87
2019-06-27T14:35:15.146Z,50.97
2019-06-27T14:37:36.666Z,42.77
2019-06-27T14:40:05.921Z,45.87
2019-06-27T14:42:34.219Z,54.73
2019-06-27T14:45:01.765Z,50.67
2019-06-27T14:47:29.339Z,42.67
2019-06-27T14:49:56.774Z,48.50
2019-06-27T14:52:24.677Z,52.80
2019-06-27T14:54:52.126Z,50.73
2019-06-27T14:57:20.040Z,53.93
2019-06-27T14:59:47.439Z,64.50
2019-06-27T15:02:15.528Z,46.67
2019-06-27T15:04:43.007Z,42.77
2019-06-27T15:07:11.269Z,56.50
2019-06-27T15:09:38.803Z,50.57
2019-06-27T15:12:07.045Z,45.95
2019-06-27T15:14:34.924Z,41.85
2019-06-27T15:17:02.420Z,39.83
2019-06-27T15:19:29.879Z,40.50
2019-06-27T15:21:57.474Z,50.50
2019-06-27T15:24:25.013Z,42.17
2019-06-27T15:26:52.784Z,41.40
2019-06-27T15:29:20.316Z,35.72
2019-06-27T15:31:48.079Z,50.75
2019-06-27T15:34:15.503Z,41.05
2019-06-27T15:36:44.187Z,43.13
2019-06-27T15:39:12.163Z,40.53
2019-06-27T15:41:39.336Z,52.97
2019-06-27T15:44:06.751Z,36.80
2019-06-27T15:46:34.209Z,46.63
2019-06-27T15:49:01.643Z,39.10
2019-06-27T15:51:29.388Z,45.22
2019-06-27T15:53:56.903Z,45.40
2019-06-27T15:56:25.162Z,46.90
2019-06-27T15:58:52.712Z,48.05
2019-06-27T16:01:20.299Z,40.88
2019-06-27T16:03:47.786Z,37.15
2019-06-27T16:06:15.333Z,40.03
2019-06-27T16:08:42.686Z,41.73
2019-06-27T16:11:10.328Z,33.72
2019-06-27T16:13:37.759Z,38.28
2019-06-27T16:16:05.200Z,35.80
2019-06-27T16:18:32.612Z,38.17
2019-06-27T16:21:00.896Z,33.85
2019-06-27T16:23:28.323Z,33.20
2019-06-27T16:25:56.107Z,44.55
2019-06-27T16:28:26.785Z,33.72
2019-06-27T16:30:51.289Z,30.48
2019-06-27T16:33:18.844Z,34.65
2019-06-27T16:35:46.524Z,33.40
2019-06-27T16:38:13.987Z,29.58
2019-06-27T16:40:41.612Z,27.67
2019-06-27T16:43:09.247Z,28.80
2019-06-27T16:45:40.299Z,37.92
2019-06-27T16:48:04.755Z,31.55
2019-06-27T16:50:32.299Z,25.73
2019-06-27T16:52:59.772Z,28.67
2019-06-27T16:55:27.379Z,42.72
2019-06-27T16:57:54.841Z,31.58
2019-06-27T17:00:22.515Z,25.27
2019-06-27T17:02:50.073Z,31.65
2019-06-27T17:05:18.257Z,32.60
2019-06-27T17:07:45.911Z,26.27
2019-06-27T17:10:14.191Z,34.35
2019-06-27T17:12:41.774Z,31.65
2019-06-27T17:15:09.376Z,27.65
2019-06-27T17:17:36.871Z,23.38
2019-06-27T17:20:06.317Z,25.58
2019-06-27T17:22:33.922Z,23.70
2019-06-27T17:25:01.485Z,26.70
2019-06-27T17:27:28.965Z,21.87
2019-06-27T17:29:56.468Z,22.80
2019-06-27T17:32:24.226Z,27.98
2019-06-27T17:34:52.027Z,29.05
2019-06-27T17:37:19.478Z,33.72
2019-06-27T17:39:46.952Z,27.55
2019-06-27T17:42:14.652Z,36.63
2019-06-27T17:44:42.662Z,34.47
2019-06-27T17:47:10.995Z,36.97
2019-06-27T17:49:38.392Z,32.90
2019-06-27T17:52:05.845Z,34.28
2019-06-27T17:54:33.719Z,33.35
2019-06-27T17:57:01.170Z,28.25
2019-06-27T17:59:28.622Z,36.65
2019-06-27T18:01:56.114Z,33.67
2019-06-27T18:04:23.547Z,38.13
2019-06-27T18:06:51.813Z,35.58
2019-06-27T18:09:19.269Z,32.35
2019-06-27T18:11:46.702Z,29.52
2019-06-27T18:14:14.376Z,26.33
2019-06-27T18:16:41.833Z,24.25
2019-06-27T18:19:09.562Z,28.20
2019-06-27T18:21:37.011Z,30.37
2019-06-27T18:24:04.490Z,36.35
2019-06-27T18:26:32.093Z,31.50
2019-06-27T18:29:00.055Z,42.38
2019-06-27T18:31:27.495Z,28.92
2019-06-27T18:33:55.263Z,36.92
2019-06-27T18:36:22.737Z,38.25
2019-06-27T18:38:50.522Z,34.72
2019-06-27T18:41:17.940Z,31.23
2019-06-27T18:43:45.546Z,45.12
2019-06-27T18:46:13.046Z,45.80
2019-06-27T18:48:40.648Z,44.38
2019-06-27T18:51:08.136Z,45.05
2019-06-27T18:53:35.906Z,54.15
2019-06-27T18:56:03.341Z,53.00
2019-06-27T18:58:31.503Z,45.12
2019-06-27T19:00:58.952Z,47.80
2019-06-27T19:03:26.579Z,43.47
2019-06-27T19:05:54.023Z,47.95
2019-06-27T19:08:21.422Z,44.30
2019-06-27T19:10:48.944Z,38.40
2019-06-27T19:13:16.434Z,41.10
2019-06-27T19:15:43.864Z,42.70
2019-06-27T19:18:16.801Z,46.80
2019-06-27T19:20:45.008Z,35.40
2019-06-27T19:23:26.894Z,35.03
2019-06-27T19:25:54.353Z,38.17
2019-06-27T19:28:21.839Z,39.47
2019-06-27T19:30:49.379Z,43.03
2019-06-27T19:33:16.835Z,39.80
2019-06-27T19:35:44.247Z,43.90
2019-06-27T19:38:11.689Z,41.30
2019-06-27T19:40:39.131Z,37.10
2019-06-27T19:43:06.852Z,38.25
2019-06-27T19:45:34.298Z,36.70
2019-06-27T19:48:01.958Z,31.33
2019-06-27T19:50:29.416Z,36.72
2019-06-27T19:52:56.830Z,28.77
2019-06-27T19:55:24.252Z,31.05
2019-06-27T19:57:52.856Z,35.50
2019-06-27T20:00:20.400Z,32.50
2019-06-27T20:02:48.120Z,34.00
2019-06-27T20:05:15.547Z,30.27
2019-06-27T20:07:43.524Z,29.90
2019-06-27T20:10:11.971Z,34.55
2019-06-27T20:12:38.782Z,26.27
2019-06-27T20:15:06.540Z,38.08
2019-06-27T20:17:34.133Z,31.90
2019-06-27T20:20:01.538Z,35.63
2019-06-27T20:22:29.187Z,35.13
2019-06-27T20:24:57.089Z,35.50
2019-06-27T20:27:24.723Z,39.03
2019-06-27T20:29:52.138Z,30.98
2019-06-27T20:32:19.592Z,34.55
2019-06-27T20:34:46.991Z,33.15
2019-06-27T20:37:14.518Z,30.05
2019-06-27T20:39:41.934Z,29.08
2019-06-27T20:42:09.920Z,29.40
2019-06-27T20:44:37.393Z,31.50
2019-06-27T20:47:04.801Z,29.77
2019-06-27T20:49:32.246Z,32.40
2019-06-27T20:52:00.151Z,26.48
2019-06-27T20:54:27.607Z,24.87
2019-06-27T20:56:55.270Z,23.92
2019-06-27T20:59:22.678Z,23.00
2019-06-27T21:01:50.221Z,24.50
2019-06-27T21:04:17.636Z,24.83
2019-06-27T21:06:45.099Z,24.85
2019-06-27T21:09:12.506Z,21.95
2019-06-27T21:11:40.487Z,22.90
2019-06-27T21:14:07.915Z,23.23
2019-06-27T21:16:35.702Z,24.15
2019-06-27T21:19:03.199Z,26.20
2019-06-27T21:21:31.173Z,26.58
2019-06-27T21:23:58.603Z,27.23
2019-06-27T21:26:26.023Z,25.05
2019-06-27T21:28:53.446Z,23.67
2019-06-27T21:31:20.978Z,22.50
2019-06-27T21:33:48.614Z,21.02
2019-06-27T21:36:16.247Z,21.15
2019-06-27T21:38:43.695Z,24.20
2019-06-27T21:41:11.123Z,22.40
2019-06-27T21:55:53.623Z,22.02
